Domov               UVHVVR             MKGP            O straneh              
ZDRAVSTVENO VARSTVO RASTLIN
  MREŽA AGROMET. POSTAJ
 ► PROGNOSTIČNA OBVESTILA
AGROMETEOROLOŠKI PODATKI -
ARSO
OBVLADOVANJE TVEGANJ ZARADI
NEUGODNIH VREMENSKIH RAZMER
  ► NARAVNE NESREČE
  ► SUŠA/MOČA
  ► NAMAKANJE
  ► ŽLED (gozdarstvo)
KARTOGRAFSKI PRIKAZI
SPLETNE POVEZAVE
PROJEKTI IN PUBLIKACIJE

AGROMETEOROLOŠKA MREŽA: VREMENSKE POSTAJE IN FENOLOŠKA OPAZOVANJA

Pregled podatkov za lokacijo KIS 2, meteorološka postaja 27260

Pregled senzorjev na lokaciji

ID Ime Zadnja
vrednost
Datum
zadnje
spremembe
Tip
senzorja
1396 Relativna vlaga 2 m (% RH) 79,36 % RH 19.8.2017 03:15 Generic 0 - 100 %
1397 Omočenost lista (U) 9,07 U 19.8.2017 03:15 A730WET
1398 Padavine 0.2 mm (mm) 0 mm 19.8.2017 03:15 Generic
3177 Temperatura 2 m ( °C) 19,28 °C 19.8.2017 03:15 Generic -40 - +60 °C

Pregled podatkov zadnjih 24 ur

Zap.
št.
Datum in čas KIS 2
Omočenost
lista
Padavine
0.2
mm
Relativna
vlaga
2
m
Temperatura
2
m
0 19.8.2017 02:30 9,07 0 79,36 19,28
1 19.8.2017 02:00 9,2 0 80,15 19,32
2 19.8.2017 01:30 1,6 0 75,86 20,19
3 19.8.2017 01:00 2,23 0 74,45 20,49
4 19.8.2017 00:30 1,47 0 72,42 21,13
5 19.8.2017 00:00 2,43 0 72,93 21,4
6 18.8.2017 23:30 1,43 0 71,63 22,09
7 18.8.2017 23:00 0,3 0 66,68 22,67
8 18.8.2017 22:30 0 0 62,16 23,91
9 18.8.2017 22:00 0 0 57,16 25,2
10 18.8.2017 21:30 0 0 52,01 26,13
11 18.8.2017 21:00 0 0 49,62 27
12 18.8.2017 20:30 0 0 47,96 27,51
13 18.8.2017 20:00 0 0 49,54 28,18
14 18.8.2017 19:30 0 0 47,29 29,32
15 18.8.2017 19:00 0 0 40,55 30,53
16 18.8.2017 18:30 0 0 36,37 31,53
17 18.8.2017 18:00 0 0 34 32,85
18 18.8.2017 17:30 0 0 32,32 33,41
19 18.8.2017 17:00 0 0 30,99 33,81
20 18.8.2017 16:30 0 0 31,22 33,63
21 18.8.2017 16:00 0 0 30,85 33,69
22 18.8.2017 15:30 0 0 30,99 33,32
23 18.8.2017 15:00 0 0 30,91 33,24
24 18.8.2017 14:30 0 0 31,31 33,06
25 18.8.2017 14:00 0 0 31,36 33,07
26 18.8.2017 13:30 0 0 34,3 32,29
27 18.8.2017 13:00 0 0 37,64 31,78
28 18.8.2017 12:30 0 0 38,95 31,63
29 18.8.2017 12:00 0 0 41,35 30,62
30 18.8.2017 11:30 0 0 42,94 29,98
31 18.8.2017 11:00 0 0 47,05 28,44
32 18.8.2017 10:30 0 0 50,49 27,51
33 18.8.2017 10:00 0 0 53,14 26,47
34 18.8.2017 09:30 0 0 57,16 25,34
35 18.8.2017 09:00 0 0 61,06 24,18
36 18.8.2017 08:30 0 0 64,08 23,38
37 18.8.2017 08:00 0 0 70,61 21,6
38 18.8.2017 07:30 0 0 75,34 20,35
39 18.8.2017 07:00 0 0 78,42 19,65
40 18.8.2017 06:30 3,9 0 80,11 19,29
41 18.8.2017 06:00 10 0 81,93 18,79
42 18.8.2017 05:30 10 0 84,11 18,25
43 18.8.2017 05:00 9,9 0 87,67 18
44 18.8.2017 04:30 9,23 0 86,82 18,24
45 18.8.2017 04:00 9,1 0 86,5 18,13
© 2011 Ministrstvo za kmetijstvo, gozdarstvo in prehrano. Vse pravice pridržane.